Time,TemperatureF,DewpointF,PressureIn,WindDirection,WindDirectionDegrees,WindSpeedMPH,WindSpeedGustMPH,Humidity,HourlyPrecipIn,Conditions,Clouds,dailyrainin,SoftwareType,DateUTC
2013-07-18 00:43:00,75.0,73.0,30.16,NNW,328,0.0,0.0,92,0.00,,,0.00,,2013-07-18 04:43:00,
2013-07-18 00:52:00,75.0,73.0,30.16,NNW,328,0.0,0.0,92,0.00,,,0.00,,2013-07-18 04:52:00,
2013-07-18 01:32:00,75.0,73.0,30.16,NNW,328,0.0,1.0,93,0.00,,,0.00,,2013-07-18 05:32:00,
2013-07-18 01:52:00,75.0,73.0,30.15,NNW,328,0.0,0.0,93,0.00,,,0.00,,2013-07-18 05:52:00,
2013-07-18 02:43:00,74.0,72.0,30.15,NNW,328,0.0,0.0,95,0.00,,,0.00,,2013-07-18 06:43:00,
2013-07-18 02:52:00,74.0,72.0,30.14,NNW,328,0.0,0.0,95,0.00,,,0.00,,2013-07-18 06:52:00,
2013-07-18 03:01:00,74.0,72.0,30.14,NNW,328,0.0,0.0,95,0.00,,,0.00,,2013-07-18 07:01:00,
2013-07-18 03:12:00,74.0,72.0,30.14,NNW,328,0.0,0.0,95,0.00,,,0.00,,2013-07-18 07:12:00,
2013-07-18 03:32:00,74.0,72.0,30.14,NNW,328,0.0,0.0,95,0.00,,,0.00,,2013-07-18 07:32:00,
2013-07-18 03:42:00,74.0,72.0,30.14,NNW,328,0.0,0.0,95,0.00,,,0.00,,2013-07-18 07:42:00,
2013-07-18 03:52:00,74.0,72.0,30.14,NNW,328,0.0,0.0,95,0.00,,,0.00,,2013-07-18 07:52:00,
2013-07-18 04:01:00,74.0,72.0,30.14,NNW,328,0.0,0.0,95,0.00,,,0.00,,2013-07-18 08:01:00,
2013-07-18 04:11:00,73.0,72.0,30.14,NNW,328,0.0,0.0,96,0.00,,,0.00,,2013-07-18 08:11:00,
2013-07-18 04:21:00,73.0,72.0,30.13,NNW,328,0.0,0.0,96,0.00,,,0.00,,2013-07-18 08:21:00,
2013-07-18 04:32:00,73.0,72.0,30.14,NNW,328,0.0,0.0,96,0.00,,,0.00,,2013-07-18 08:32:00,
2013-07-18 04:42:00,73.0,72.0,30.14,NNW,328,0.0,0.0,96,0.00,,,0.00,,2013-07-18 08:42:00,
2013-07-18 04:51:00,73.0,72.0,30.14,NNW,328,0.0,0.0,96,0.00,,,0.00,,2013-07-18 08:51:00,
2013-07-18 05:01:00,73.0,72.0,30.14,NNW,328,0.0,0.0,96,0.00,,,0.00,,2013-07-18 09:01:00,
2013-07-18 05:11:00,73.0,72.0,30.14,NNW,328,0.0,0.0,97,0.00,,,0.00,,2013-07-18 09:11:00,
2013-07-18 05:21:00,73.0,72.0,30.13,NNW,328,0.0,0.0,97,0.00,,,0.00,,2013-07-18 09:21:00,
2013-07-18 05:32:00,73.0,72.0,30.14,NNW,328,0.0,0.0,97,0.00,,,0.00,,2013-07-18 09:32:00,
2013-07-18 05:41:00,73.0,72.0,30.14,NNW,328,0.0,0.0,97,0.00,,,0.00,,2013-07-18 09:41:00,
2013-07-18 05:51:00,73.0,72.0,30.14,NNW,328,0.0,0.0,98,0.00,,,0.00,,2013-07-18 09:51:00,
2013-07-18 06:01:00,73.0,72.0,30.14,NNW,328,0.0,0.0,98,0.00,,,0.00,,2013-07-18 10:01:00,
2013-07-18 06:11:00,73.0,72.0,30.13,NNW,328,0.0,0.0,98,0.00,,,0.00,,2013-07-18 10:11:00,
2013-07-18 06:43:00,73.0,72.0,30.13,NNW,328,0.0,0.0,98,0.00,,,0.00,,2013-07-18 10:43:00,
2013-07-18 06:52:00,73.0,72.0,30.13,NNW,328,0.0,0.0,98,0.00,,,0.00,,2013-07-18 10:52:00,
2013-07-18 07:43:00,73.0,73.0,30.13,NNW,328,0.0,0.0,99,0.00,,,0.00,,2013-07-18 11:43:00,
2013-07-18 08:02:00,74.0,74.0,30.13,NNW,328,0.0,0.0,99,0.00,,,0.00,,2013-07-18 12:02:00,
2013-07-18 08:42:00,76.0,74.0,30.13,NNW,328,0.0,4.0,95,0.00,,,0.00,,2013-07-18 12:42:00,
2013-07-18 10:43:00,84.0,75.0,30.12,NW,309,0.0,4.0,74,0.00,,,0.00,,2013-07-18 14:43:00,
2013-07-18 10:52:00,84.0,75.0,30.12,WNW,301,1.0,6.0,74,0.00,,,0.00,,2013-07-18 14:52:00,
2013-07-18 11:32:00,87.0,77.0,30.11,West,265,0.0,6.0,72,0.00,,,0.00,,2013-07-18 15:32:00,
2013-07-18 11:43:00,87.0,75.0,30.11,NNW,337,1.0,6.0,68,0.00,,,0.00,,2013-07-18 15:43:00,
2013-07-18 13:43:00,87.0,75.0,30.09,WSW,250,2.0,6.0,68,0.00,,,0.00,,2013-07-18 17:43:00,
2013-07-18 13:52:00,87.0,75.0,30.09,WSW,250,0.0,6.0,68,0.00,,,0.00,,2013-07-18 17:52:00,
2013-07-18 16:02:00,82.0,77.0,30.06,SSW,198,0.0,0.0,86,0.00,,,0.02,,2013-07-18 20:02:00,
2013-07-18 16:52:00,88.0,-99.9,30.03,SSW,198,1.0,2.0,-999,0.00,,,0.02,,2013-07-18 20:52:00,
2013-07-18 17:01:00,89.0,77.0,30.01,SSW,198,0.0,4.0,68,0.00,,,0.02,,2013-07-18 21:01:00,
2013-07-18 17:11:00,90.0,77.0,30.01,NW,319,0.0,7.0,65,0.00,,,0.02,,2013-07-18 21:11:00,
2013-07-18 17:22:00,90.0,76.0,30.01,SSW,209,1.0,4.0,64,0.00,,,0.02,,2013-07-18 21:22:00,
2013-07-18 17:32:00,90.0,76.0,30.00,WSW,247,1.0,6.0,64,0.00,,,0.02,,2013-07-18 21:32:00,
2013-07-18 17:43:00,90.0,74.0,30.00,South,178,1.0,8.0,60,0.00,,,0.02,,2013-07-18 21:43:00,
2013-07-18 17:52:00,90.0,75.0,29.99,West,278,1.0,8.0,62,0.00,,,0.02,,2013-07-18 21:52:00,
2013-07-18 18:01:00,91.0,75.0,29.99,SSW,203,1.0,10.0,59,0.00,,,0.02,,2013-07-18 22:01:00,
2013-07-18 18:11:00,91.0,74.0,29.99,WNW,296,1.0,10.0,58,0.00,,,0.02,,2013-07-18 22:11:00,
2013-07-18 18:43:00,91.0,73.0,29.98,WNW,295,1.0,8.0,56,0.00,,,0.02,,2013-07-18 22:43:00,
2013-07-18 19:42:00,89.0,73.0,29.96,NW,311,1.0,7.0,60,0.00,,,0.02,,2013-07-18 23:42:00,
2013-07-18 19:52:00,89.0,74.0,29.96,West,272,0.0,7.0,61,0.00,,,0.02,,2013-07-18 23:52:00,
2013-07-18 20:01:00,89.0,74.0,29.96,WNW,302,0.0,6.0,62,0.00,,,0.02,,2013-07-19 00:01:00,
2013-07-18 20:11:00,89.0,75.0,29.96,WNW,299,0.0,4.0,63,0.00,,,0.02,,2013-07-19 00:11:00,
2013-07-18 20:22:00,88.0,75.0,29.96,WNW,299,0.0,6.0,65,0.00,,,0.02,,2013-07-19 00:22:00,
2013-07-18 20:32:00,87.0,75.0,29.96,WNW,299,0.0,2.0,68,0.00,,,0.02,,2013-07-19 00:32:00,
2013-07-18 20:43:00,86.0,75.0,29.96,WNW,299,0.0,2.0,69,0.00,,,0.02,,2013-07-19 00:43:00,
2013-07-18 20:52:00,85.0,74.0,29.95,WNW,299,0.0,0.0,70,0.00,,,0.02,,2013-07-19 00:52:00,
2013-07-18 21:01:00,84.0,75.0,29.94,WNW,299,0.0,0.0,74,-99.99,,,-99.99,,2013-07-19 01:01:00,
2013-07-18 21:11:00,83.0,74.0,29.94,WNW,299,0.0,0.0,74,-99.99,,,-99.99,,2013-07-19 01:11:00,